INDIA METEOROLOGICAL DEPARTMENT, R.M.C. NEW DELHI
Dated:26 - 7 - 2017
METARS OF ALTERNATE AIRPORTS
Delhi      
VIDP 261800Z 12004KT 3500 BR FEW040 SCT100 30/26 Q1002 NOSIG=
Amritsar   
VIAR 261800Z 11004KT 5000 BR FEW035 30/30 Q1001 NOSIG=
Lucknow    
VILK 261730Z 11005KT 3500 HZ SCT020 SCT100 30/26 Q1000=
Jaipur     
VIJP 261800Z 08003KT 3000 HZ SCT030 SCT100 29/25 Q1003 NOSIG=
Ahmedabad  
VAAH 261800Z 28007KT 1900 -RA SCT012 SCT018 OVC070 26/25 Q1002 NOSIG=
Mumbai     
VABB 261830Z 23010KT 3000 HZ SCT018 SCT025 BKN100 28/25 Q1005 NOSIG=